createdAt,value
2018-11-20T00:00:56.960Z,43.2
2018-11-20T00:01:58.282Z,43.2
2018-11-20T00:02:59.602Z,43.8
2018-11-20T00:04:01.199Z,43.2
2018-11-20T00:05:02.309Z,43.2
2018-11-20T00:06:03.985Z,43.1
2018-11-20T00:07:05.313Z,43.5
2018-11-20T00:08:06.649Z,43.3
2018-11-20T00:09:07.991Z,43
2018-11-20T00:10:09.888Z,43.2
2018-11-20T00:11:11.783Z,43.2
2018-11-20T00:12:13.379Z,43.2
2018-11-20T00:13:14.428Z,43.1
2018-11-20T00:14:16.071Z,43
2018-11-20T00:15:17.966Z,43.5
2018-11-20T00:16:19.310Z,43.2
2018-11-20T00:17:20.633Z,43.1
2018-11-20T00:18:22.254Z,43
2018-11-20T00:19:23.598Z,43.1
2018-11-20T00:20:25.196Z,43.2
2018-11-20T00:21:26.537Z,43
2018-11-20T00:22:28.170Z,43.1
2018-11-20T00:23:29.478Z,42.9
2018-11-20T00:24:31.373Z,43.1
2018-11-20T00:25:32.694Z,43.2
2018-11-20T00:26:34.017Z,43.2
2018-11-20T00:27:35.063Z,42.8
2018-11-20T00:28:36.683Z,42.9
2018-11-20T00:29:38.304Z,43.1
2018-11-20T00:30:40.201Z,43.2
2018-11-20T00:31:41.540Z,42.9
2018-11-20T00:32:42.882Z,43
2018-11-20T00:33:44.783Z,43.1
2018-11-20T00:34:46.401Z,43
2018-11-20T00:35:48.020Z,43.1
2018-11-20T00:36:49.641Z,43.1
2018-11-20T00:37:51.538Z,43
2018-11-20T00:38:53.162Z,43.1
2018-11-20T00:39:54.775Z,43.2
2018-11-20T00:40:56.105Z,43.2
2018-11-20T00:41:57.447Z,42.9
2018-11-20T00:42:58.494Z,43.2
2018-11-20T00:43:59.820Z,43.1
2018-11-20T00:45:01.413Z,43.2
2018-11-20T00:46:02.461Z,42.9
2018-11-20T00:47:03.803Z,43.1
2018-11-20T00:48:05.125Z,42.8
2018-11-20T00:49:06.165Z,43.1
2018-11-20T00:50:07.212Z,43.2
2018-11-20T00:51:08.530Z,43.4
2018-11-20T00:52:10.148Z,43.5
2018-11-20T00:53:11.469Z,43.5
2018-11-20T00:54:13.367Z,43.5
2018-11-20T00:55:14.986Z,43
2018-11-20T00:56:16.329Z,43.2
2018-11-20T00:57:18.660Z,43.3
2018-11-20T00:58:20.562Z,42.9
2018-11-20T00:59:21.894Z,43.1
2018-11-20T01:00:23.788Z,43.5
2018-11-20T01:02:56.586Z,43.1
2018-11-20T01:03:57.906Z,43.1
2018-11-20T01:04:59.813Z,43.2
2018-11-20T01:06:01.465Z,43.4
2018-11-20T01:07:03.358Z,43.4
2018-11-20T01:08:04.677Z,43.2
2018-11-20T01:09:06.571Z,43.2
2018-11-20T01:10:08.196Z,43.6
2018-11-20T01:11:09.814Z,43.4
2018-11-20T01:12:11.711Z,43
2018-11-20T01:13:13.052Z,43.1
2018-11-20T01:14:14.096Z,43.2
2018-11-20T01:15:15.451Z,43.4
2018-11-20T01:16:17.350Z,42.9
2018-11-20T01:17:19.243Z,43.3
2018-11-20T01:18:20.585Z,43
2018-11-20T01:19:21.649Z,43.1
2018-11-20T01:20:23.543Z,43
2018-11-20T01:21:25.164Z,43.2
2018-11-20T01:22:26.482Z,43.6
2018-11-20T01:23:28.378Z,43.2
2018-11-20T01:24:29.999Z,43.4
2018-11-20T01:25:31.894Z,43.3
2018-11-20T01:26:32.941Z,43.4
2018-11-20T01:27:33.982Z,43.5
2018-11-20T01:28:35.597Z,43.1
2018-11-20T01:29:37.496Z,43.1
2018-11-20T01:30:39.109Z,42.9
2018-11-20T01:31:41.013Z,42.9
2018-11-20T01:32:42.354Z,43
2018-11-20T01:33:43.726Z,42.9
2018-11-20T01:34:45.050Z,42.8
2018-11-20T01:35:46.946Z,43.1
2018-11-20T01:36:48.565Z,43.5
2018-11-20T01:37:49.888Z,43.3
2018-11-20T01:38:51.778Z,43.4
2018-11-20T01:39:53.675Z,43.3
2018-11-20T01:40:55.291Z,43.1
2018-11-20T01:41:56.907Z,43.2
2018-11-20T01:42:57.954Z,42.8
2018-11-20T01:43:59.861Z,42.9
2018-11-20T01:45:01.470Z,43
2018-11-20T01:46:02.812Z,43.2
2018-11-20T01:47:04.155Z,43.1
2018-11-20T01:48:05.497Z,43.2
2018-11-20T01:49:06.545Z,43
2018-11-20T01:50:08.437Z,42.8
2018-11-20T01:51:09.861Z,43.2
2018-11-20T01:52:11.512Z,43.2
2018-11-20T01:53:12.850Z,43.1
2018-11-20T01:54:14.748Z,43.3
2018-11-20T01:55:16.366Z,43
2018-11-20T01:56:18.259Z,43.2
2018-11-20T01:57:20.157Z,43.2
2018-11-20T01:58:22.052Z,43.1
2018-11-20T01:59:23.948Z,43.1
2018-11-20T02:00:25.569Z,43.1
2018-11-20T02:01:27.190Z,43.1
2018-11-20T02:02:29.150Z,43.2
2018-11-20T02:03:31.043Z,42.8
2018-11-20T02:04:32.364Z,43
2018-11-20T02:05:33.984Z,42.8
2018-11-20T02:06:35.607Z,42.8
2018-11-20T02:07:37.225Z,42.8
2018-11-20T02:08:39.119Z,42.9
2018-11-20T02:09:41.014Z,43.1
2018-11-20T02:10:42.641Z,43.1
2018-11-20T02:11:43.981Z,42.8
2018-11-20T02:12:45.595Z,43.2
2018-11-20T02:13:47.192Z,42.9
2018-11-20T02:14:48.262Z,43
2018-11-20T02:15:49.878Z,43
2018-11-20T02:16:51.495Z,42.6
2018-11-20T02:17:52.817Z,42.6
2018-11-20T02:18:54.441Z,42.9
2018-11-20T02:19:55.482Z,43.2
2018-11-20T02:20:56.559Z,42.9
2018-11-20T02:21:58.167Z,43
2018-11-20T02:22:59.512Z,42.8
2018-11-20T02:24:00.827Z,42.9
2018-11-20T02:25:02.446Z,42.9
2018-11-20T02:26:03.776Z,42.7
2018-11-20T02:27:05.393Z,42.8
2018-11-20T02:28:06.440Z,43.1
2018-11-20T02:29:08.062Z,43.1
2018-11-20T02:30:09.960Z,43.1
2018-11-20T02:31:11.557Z,43
2018-11-20T02:32:12.877Z,43.2
2018-11-20T02:33:13.926Z,43.3
2018-11-20T02:34:15.821Z,43.1
2018-11-20T02:35:17.141Z,43
2018-11-20T02:36:18.480Z,43.2
2018-11-20T02:37:19.524Z,43
2018-11-20T02:38:20.864Z,43
2018-11-20T02:39:22.184Z,43.1
2018-11-20T02:40:23.503Z,43.2
2018-11-20T02:41:25.398Z,42.8
2018-11-20T02:42:26.740Z,43.1
2018-11-20T02:43:28.365Z,43.1
2018-11-20T02:44:29.986Z,42.9
2018-11-20T02:45:31.611Z,42.8
2018-11-20T02:46:33.501Z,42.9
2018-11-20T02:47:34.840Z,42.7
2018-11-20T02:48:36.466Z,42.9
2018-11-20T02:49:38.085Z,42.8
2018-11-20T02:50:40.209Z,42.9
2018-11-20T02:51:41.829Z,43
2018-11-20T02:52:42.870Z,43.1
2018-11-20T02:53:44.492Z,43.2
2018-11-20T02:54:46.115Z,43
2018-11-20T02:55:47.456Z,42.9
2018-11-20T02:56:48.771Z,42.9
2018-11-20T02:57:50.093Z,43
2018-11-20T02:58:51.990Z,43
2018-11-20T02:59:53.614Z,43
2018-11-20T03:00:55.239Z,42.9
2018-11-20T03:01:57.130Z,42.9
2018-11-20T03:02:58.749Z,43.1
2018-11-20T03:04:00.072Z,43.1
2018-11-20T03:05:01.689Z,43.3
2018-11-20T03:06:03.011Z,43.5
2018-11-20T03:07:04.645Z,43
2018-11-20T03:08:06.247Z,42.9
2018-11-20T03:09:07.864Z,43.1
2018-11-20T03:10:09.763Z,43.1
2018-11-20T03:11:11.357Z,42.9
2018-11-20T03:12:12.697Z,43.1
2018-11-20T03:13:14.042Z,42.9
2018-11-20T03:14:15.664Z,43.1
2018-11-20T03:15:17.285Z,42.9
2018-11-20T03:16:18.906Z,42.7
2018-11-20T03:17:20.244Z,42.6
2018-11-20T03:18:21.863Z,42.6
2018-11-20T03:19:23.185Z,42.5
2018-11-20T03:20:24.806Z,42.7
2018-11-20T03:21:26.129Z,43
2018-11-20T03:22:28.023Z,43.1
2018-11-20T03:23:29.640Z,42.8
2018-11-20T03:24:31.536Z,43
2018-11-20T03:25:33.434Z,43.2
2018-11-20T03:26:35.331Z,43
2018-11-20T03:27:36.951Z,43.1
2018-11-20T03:28:38.547Z,42.8
2018-11-20T03:29:40.211Z,42.8
2018-11-20T03:30:42.109Z,43.1
2018-11-20T03:31:43.430Z,43.1
2018-11-20T03:32:45.055Z,43.3
2018-11-20T03:33:46.940Z,43.4
2018-11-20T03:34:48.006Z,43
2018-11-20T03:35:49.899Z,42.8
2018-11-20T03:36:51.244Z,43
2018-11-20T03:37:52.586Z,42.8
2018-11-20T03:38:54.183Z,42.9
2018-11-20T03:39:55.800Z,42.9
2018-11-20T03:40:57.695Z,43.1
2018-11-20T03:41:59.040Z,42.9
2018-11-20T03:43:00.087Z,43.2
2018-11-20T03:44:01.426Z,43.2
2018-11-20T03:45:02.767Z,42.7
2018-11-20T03:46:04.384Z,42.7
2018-11-20T03:47:06.007Z,43.2
2018-11-20T03:48:07.350Z,42.8
2018-11-20T03:49:08.947Z,42.9
2018-11-20T03:50:09.713Z,43.2
2018-11-20T03:51:11.610Z,42.9
2018-11-20T03:52:13.226Z,43
2018-11-20T03:53:14.265Z,43.1
2018-11-20T03:54:15.583Z,42.8
2018-11-20T03:55:17.205Z,43
2018-11-20T03:56:18.526Z,43.2
2018-11-20T03:57:20.423Z,43.1
2018-11-20T03:58:22.039Z,42.9
2018-11-20T03:59:23.656Z,43.2
2018-11-20T04:00:25.277Z,43.2
2018-11-20T04:01:26.896Z,43.1
2018-11-20T04:02:28.516Z,42.9
2018-11-20T04:03:30.418Z,43
2018-11-20T04:04:32.011Z,42.6
2018-11-20T04:05:33.908Z,42.6
2018-11-20T04:06:35.805Z,42.8
2018-11-20T04:07:37.699Z,42.9
2018-11-20T04:08:39.595Z,42.7
2018-11-20T04:09:41.490Z,42.8
2018-11-20T04:10:43.385Z,42.8
2018-11-20T04:11:44.987Z,43.1
2018-11-20T04:12:46.887Z,43.1
2018-11-20T04:13:48.776Z,42.8
2018-11-20T04:14:50.393Z,42.9
2018-11-20T04:15:52.013Z,43.2
2018-11-20T04:16:53.633Z,42.9
2018-11-20T04:17:55.451Z,43.1
2018-11-20T04:18:57.376Z,43.1
2018-11-20T04:19:59.269Z,43.1
2018-11-20T04:21:00.887Z,42.9
2018-11-20T04:22:02.514Z,42.9
2018-11-20T04:23:03.558Z,43.1
2018-11-20T04:24:05.177Z,42.9
2018-11-20T04:25:06.496Z,43
2018-11-20T04:26:07.847Z,43.1
2018-11-20T04:27:09.466Z,43
2018-11-20T04:28:11.082Z,43.1
2018-11-20T04:29:12.700Z,43.3
2018-11-20T04:30:13.743Z,43.1
2018-11-20T04:31:15.361Z,42.9
2018-11-20T04:32:16.983Z,43
2018-11-20T04:33:18.602Z,43.2
2018-11-20T04:34:19.923Z,43
2018-11-20T04:35:21.268Z,43.2
2018-11-20T04:36:23.176Z,42.9
2018-11-20T04:37:24.772Z,42.6
2018-11-20T04:38:26.395Z,43.2
2018-11-20T04:39:27.714Z,43
2018-11-20T04:40:29.330Z,43.2
2018-11-20T04:41:30.932Z,43.2
2018-11-20T04:42:31.977Z,43
2018-11-20T04:43:33.572Z,43.2
2018-11-20T04:44:35.168Z,43.1
2018-11-20T04:45:36.510Z,43
2018-11-20T04:46:38.127Z,43
2018-11-20T04:47:39.752Z,43.1
2018-11-20T04:48:41.369Z,43.1
2018-11-20T04:49:43.077Z,42.8
2018-11-20T04:50:44.677Z,42.8
2018-11-20T04:51:46.296Z,42.9
2018-11-20T04:52:47.619Z,42.9
2018-11-20T04:53:49.517Z,42.6
2018-11-20T04:54:51.135Z,42.9
2018-11-20T04:55:53.031Z,42.9
2018-11-20T04:56:54.650Z,42.9
2018-11-20T04:57:56.547Z,42.9
2018-11-20T04:58:58.167Z,42.9
2018-11-20T05:00:00.064Z,42.8
2018-11-20T05:01:01.382Z,42.7
2018-11-20T05:02:02.706Z,42.7
2018-11-20T05:03:04.046Z,42.7
2018-11-20T05:04:05.644Z,42.4
2018-11-20T05:05:06.966Z,42.4
2018-11-20T05:06:08.862Z,42.4
2018-11-20T05:07:09.903Z,42.5
2018-11-20T05:08:11.500Z,42.5
2018-11-20T05:09:12.842Z,42.5
2018-11-20T05:10:14.161Z,42.5
2018-11-20T05:11:15.515Z,42.7
2018-11-20T05:12:17.112Z,42.3
2018-11-20T05:13:18.931Z,42.7
2018-11-20T05:14:20.419Z,42.6
2018-11-20T05:15:21.759Z,42.7
2018-11-20T05:16:23.654Z,42.7
2018-11-20T05:17:24.994Z,42.6
2018-11-20T05:18:26.889Z,42.6
2018-11-20T05:19:27.931Z,42.5
2018-11-20T05:20:28.973Z,42.5
2018-11-20T05:21:30.869Z,42.3
2018-11-20T05:22:32.764Z,42.2
2018-11-20T05:23:33.829Z,42.4
2018-11-20T05:24:35.428Z,42.4
2018-11-20T05:25:37.045Z,42.7
2018-11-20T05:26:38.973Z,42.8
2018-11-20T05:27:40.594Z,42.5
2018-11-20T05:28:42.487Z,42.6
2018-11-20T05:29:44.105Z,42.6
2018-11-20T05:30:45.484Z,42.5
2018-11-20T05:31:47.388Z,42.6
2018-11-20T05:32:49.286Z,42.7
2018-11-20T05:33:51.181Z,42.7
2018-11-20T05:34:52.797Z,42.7
2018-11-20T05:35:54.416Z,42.4
2018-11-20T05:36:56.311Z,42.4
2018-11-20T05:37:57.909Z,42.6
2018-11-20T05:38:59.240Z,42.5
2018-11-20T05:40:01.136Z,42.6
2018-11-20T05:41:02.760Z,42.8
2018-11-20T05:42:04.658Z,42.6
2018-11-20T05:43:05.995Z,42.4
2018-11-20T05:44:07.343Z,42.8
2018-11-20T05:45:08.677Z,42.5
2018-11-20T05:46:10.575Z,42.6
2018-11-20T05:47:12.191Z,42.8
2018-11-20T05:48:14.113Z,42.6
2018-11-20T05:49:15.736Z,42.4
2018-11-20T05:50:17.629Z,42.7
2018-11-20T05:51:18.948Z,42.7
2018-11-20T05:52:20.568Z,42.4
2018-11-20T05:53:21.889Z,42.5
2018-11-20T05:54:23.491Z,42.4
2018-11-20T05:55:25.090Z,42.5
2018-11-20T05:56:26.982Z,42.4
2018-11-20T05:57:28.877Z,41.8
2018-11-20T05:58:30.778Z,42.4
2018-11-20T05:59:32.093Z,42.4
2018-11-20T06:00:33.712Z,42.4
2018-11-20T06:01:34.756Z,42.5
2018-11-20T06:02:36.109Z,42.5
2018-11-20T06:03:37.727Z,42.6
2018-11-20T06:04:39.347Z,42.5
2018-11-20T06:05:40.387Z,42.3
2018-11-20T06:06:42.000Z,42.8
2018-11-20T06:07:42.756Z,42.6
2018-11-20T06:08:44.655Z,42.5
2018-11-20T06:09:46.550Z,42.7
2018-11-20T06:10:48.513Z,42.8
2018-11-20T06:11:50.231Z,43.1
2018-11-20T06:12:51.930Z,42.9
2018-11-20T06:13:53.313Z,42.8
2018-11-20T06:14:54.657Z,42.8
2018-11-20T06:15:56.020Z,42.8
2018-11-20T06:16:57.635Z,42.7
2018-11-20T06:17:59.266Z,42.6
2018-11-20T06:19:01.366Z,42.7
2018-11-20T06:20:03.104Z,42.9
2018-11-20T06:21:04.734Z,42.8
2018-11-20T06:22:06.340Z,42.8
2018-11-20T06:23:07.937Z,42.6
2018-11-20T06:24:09.282Z,42.6
2018-11-20T06:25:11.174Z,42.6
2018-11-20T06:26:12.224Z,42.7
2018-11-20T06:27:13.841Z,42.7
2018-11-20T06:28:15.462Z,42.8
2018-11-20T06:29:17.330Z,42.9
2018-11-20T06:30:19.582Z,43
2018-11-20T06:31:21.204Z,43
2018-11-20T06:32:22.798Z,43.1
2018-11-20T06:33:24.415Z,43
2018-11-20T06:34:26.201Z,43.2
2018-11-20T06:35:28.095Z,43.2
2018-11-20T06:36:29.419Z,43.1
2018-11-20T06:37:31.314Z,42.9
2018-11-20T06:38:32.657Z,43.1
2018-11-20T06:39:34.312Z,42.9
2018-11-20T06:40:35.935Z,43
2018-11-20T06:41:37.557Z,43
2018-11-20T06:42:38.898Z,42.9
2018-11-20T06:43:40.860Z,42.9
2018-11-20T06:44:41.921Z,43.1
2018-11-20T06:45:43.568Z,43
2018-11-20T06:46:45.219Z,43.1
2018-11-20T06:47:46.841Z,43.1
2018-11-20T06:48:48.465Z,42.9
2018-11-20T06:49:50.357Z,43.2
2018-11-20T06:50:52.251Z,42.9
2018-11-20T06:51:53.871Z,42.8
2018-11-20T06:52:55.722Z,43
2018-11-20T06:53:57.849Z,43.1
2018-11-20T06:54:59.459Z,43
2018-11-20T06:56:01.354Z,43.1
2018-11-20T06:57:02.408Z,43.1
2018-11-20T06:58:03.755Z,43.3
2018-11-20T06:59:05.375Z,43.2
2018-11-20T07:00:06.419Z,43
2018-11-20T07:01:08.049Z,43.1
2018-11-20T07:02:09.384Z,42.9
2018-11-20T07:03:11.006Z,43.1
2018-11-20T07:04:12.610Z,43.1
2018-11-20T07:05:13.954Z,43
2018-11-20T07:06:15.551Z,43.1
2018-11-20T07:07:17.335Z,43.1
2018-11-20T07:08:19.413Z,43.2
2018-11-20T07:09:21.216Z,43.1
2018-11-20T07:10:22.955Z,43
2018-11-20T07:11:24.341Z,43.2
2018-11-20T07:12:25.690Z,43.1
2018-11-20T07:13:27.386Z,43.2
2018-11-20T07:14:28.741Z,43
2018-11-20T07:15:30.538Z,43.1
2018-11-20T07:16:32.891Z,42.8
2018-11-20T07:17:34.341Z,43
2018-11-20T07:18:35.998Z,43.1
2018-11-20T07:19:37.666Z,43
2018-11-20T07:20:39.277Z,43.2
2018-11-20T07:21:40.880Z,42.9
2018-11-20T07:22:42.150Z,42.9
2018-11-20T07:23:44.081Z,43.1
2018-11-20T07:24:45.754Z,43.2
2018-11-20T07:25:46.590Z,43.1
2018-11-20T07:26:48.217Z,42.9
2018-11-20T07:27:49.879Z,43
2018-11-20T07:28:51.534Z,43.4
2018-11-20T07:29:52.894Z,43.6
2018-11-20T07:30:54.815Z,43.5
2018-11-20T07:31:56.548Z,43.3
2018-11-20T07:32:58.359Z,43.4
2018-11-20T07:33:59.995Z,43.5
2018-11-20T07:35:01.795Z,43.4
2018-11-20T07:36:04.248Z,43.1
2018-11-20T07:37:05.831Z,43.5
2018-11-20T07:38:08.179Z,43.2
2018-11-20T07:39:09.802Z,43.2
2018-11-20T07:40:11.703Z,43.5
2018-11-20T07:41:13.051Z,43.3
2018-11-20T07:42:14.967Z,43.2
2018-11-20T07:43:17.025Z,43.6
2018-11-20T07:44:19.047Z,43.9
2018-11-20T07:45:21.035Z,43.2
2018-11-20T07:46:22.698Z,43.1
2018-11-20T07:47:24.041Z,43.3
2018-11-20T07:48:25.949Z,43.3
2018-11-20T07:49:27.339Z,43.2
2018-11-20T07:50:29.238Z,43.4
2018-11-20T07:51:31.188Z,43.3
2018-11-20T07:52:32.908Z,43.2
2018-11-20T07:53:33.954Z,43.4
2018-11-20T07:54:35.642Z,43.2
2018-11-20T07:55:37.271Z,43.3
2018-11-20T07:56:39.118Z,43
2018-11-20T07:57:40.449Z,43.3
2018-11-20T07:58:42.046Z,43.5
2018-11-20T07:59:43.691Z,43.2
2018-11-20T08:00:45.054Z,43.8
2018-11-20T08:01:46.681Z,43.8
2018-11-20T08:02:48.737Z,43.4
2018-11-20T08:03:50.770Z,43.5
2018-11-20T08:04:52.460Z,43.7
2018-11-20T08:05:53.960Z,43.2
2018-11-20T08:06:55.283Z,43.3
2018-11-20T08:07:57.179Z,43.6
2018-11-20T08:08:58.972Z,43.2
2018-11-20T08:10:00.927Z,43.2
2018-11-20T08:11:02.856Z,43.2
2018-11-20T08:12:04.757Z,43
2018-11-20T08:13:06.096Z,42.9
2018-11-20T08:14:07.718Z,43
2018-11-20T08:15:09.327Z,43.4
2018-11-20T08:16:11.024Z,43.2
2018-11-20T08:17:12.404Z,43.2
2018-11-20T08:18:14.027Z,43.6
2018-11-20T08:19:15.666Z,43.6
2018-11-20T08:20:17.340Z,43.5
2018-11-20T08:21:18.970Z,43.2
2018-11-20T08:22:20.322Z,43.2
2018-11-20T08:23:21.941Z,43.2
2018-11-20T08:24:23.271Z,43.3
2018-11-20T08:25:24.885Z,43.4
2018-11-20T08:26:27.999Z,43.3
2018-11-20T08:27:30.110Z,43.3
2018-11-20T08:28:31.459Z,43.2
2018-11-20T08:29:33.079Z,43.1
2018-11-20T08:30:34.423Z,43
2018-11-20T08:31:36.322Z,43.4
2018-11-20T08:32:38.232Z,43
2018-11-20T08:33:39.911Z,43.1
2018-11-20T08:34:40.966Z,43.5
2018-11-20T08:35:42.623Z,43.2
2018-11-20T08:36:43.944Z,43.3
2018-11-20T08:37:45.557Z,43.8
2018-11-20T08:38:47.173Z,43.4
2018-11-20T08:39:48.800Z,43.2
2018-11-20T08:40:50.143Z,43.2
2018-11-20T08:41:51.750Z,43.6
2018-11-20T08:42:53.372Z,43.1
2018-11-20T08:43:55.268Z,43.1
2018-11-20T08:44:57.167Z,43.3
2018-11-20T08:45:58.493Z,43.2
2018-11-20T08:46:59.541Z,43.2
2018-11-20T08:48:01.502Z,43.3
2018-11-20T08:49:02.859Z,43.1
2018-11-20T08:50:04.203Z,43.1
2018-11-20T08:51:05.800Z,43.3
2018-11-20T08:52:06.848Z,43.3
2018-11-20T08:53:08.169Z,43.3
2018-11-20T08:54:09.795Z,43.1
2018-11-20T08:55:11.139Z,43.2
2018-11-20T08:56:12.482Z,43.3
2018-11-20T08:57:13.830Z,43.3
2018-11-20T08:58:15.178Z,43.3
2018-11-20T08:59:16.782Z,43.3
2018-11-20T09:00:17.830Z,43.1
2018-11-20T09:01:19.176Z,43.1
2018-11-20T09:02:21.099Z,43.4
2018-11-20T09:03:22.671Z,43.4
2018-11-20T09:04:24.140Z,43.6
2018-11-20T09:05:25.467Z,43.5
2018-11-20T09:06:27.123Z,43.7
2018-11-20T09:07:28.724Z,43.6
2018-11-20T09:08:30.359Z,43.9
2018-11-20T09:09:31.978Z,43.5
2018-11-20T09:10:33.642Z,43.7
2018-11-20T09:11:35.460Z,43.5
2018-11-20T09:12:36.833Z,43.4
2018-11-20T09:13:38.509Z,43.8
2018-11-20T09:14:40.124Z,43.5
2018-11-20T09:15:41.754Z,43.3
2018-11-20T09:16:42.800Z,43.3
2018-11-20T09:17:44.459Z,43.1
2018-11-20T09:18:45.782Z,43.1
2018-11-20T09:19:47.685Z,43
2018-11-20T09:20:48.740Z,43.2
2018-11-20T09:21:50.364Z,43.5
2018-11-20T09:22:51.701Z,43.9
2018-11-20T09:23:53.048Z,43.8
2018-11-20T09:24:54.394Z,43.5
2018-11-20T09:25:55.911Z,43.5
2018-11-20T09:26:57.342Z,43.5
2018-11-20T09:27:59.540Z,43.6
2018-11-20T09:29:00.847Z,43.6
2018-11-20T09:30:02.473Z,43.4
2018-11-20T09:31:03.244Z,43
2018-11-20T09:32:04.864Z,42.9
2018-11-20T09:33:06.764Z,43.3
2018-11-20T09:34:08.389Z,43.5
2018-11-20T09:35:10.425Z,43.7
2018-11-20T09:36:11.095Z,43.6
2018-11-20T09:37:13.017Z,43.5
2018-11-20T09:38:14.636Z,43.7
2018-11-20T09:39:16.536Z,43.9
2018-11-20T09:40:18.437Z,43.4
2018-11-20T09:41:20.333Z,43.5
2018-11-20T09:42:21.689Z,43.3
2018-11-20T09:43:23.618Z,43.3
2018-11-20T09:44:24.991Z,43.5
2018-11-20T09:45:26.332Z,43.2
2018-11-20T09:46:28.046Z,43.2
2018-11-20T09:47:29.676Z,43.2
2018-11-20T09:48:31.001Z,43.6
2018-11-20T09:49:32.363Z,43.3
2018-11-20T09:50:34.278Z,43.2
2018-11-20T09:51:36.210Z,42.9
2018-11-20T09:52:38.021Z,42.9
2018-11-20T09:53:40.086Z,43.2
2018-11-20T09:54:41.712Z,43.5
2018-11-20T09:55:43.036Z,43.5
2018-11-20T09:56:44.670Z,43.3
2018-11-20T09:57:46.311Z,43.3
2018-11-20T09:58:47.920Z,43.6
2018-11-20T09:59:49.695Z,43.5
2018-11-20T10:00:51.470Z,43.3
2018-11-20T10:01:53.572Z,43.2
2018-11-20T10:02:54.999Z,43.2
2018-11-20T10:03:57.099Z,43.2
2018-11-20T10:04:58.228Z,43.2
2018-11-20T10:05:59.295Z,43.2
2018-11-20T10:07:00.752Z,43.1
2018-11-20T10:08:02.305Z,43.5
2018-11-20T10:09:04.203Z,43.6
2018-11-20T10:10:06.105Z,43.1
2018-11-20T10:11:08.005Z,43.3
2018-11-20T10:12:10.017Z,43.4
2018-11-20T10:13:11.244Z,43.5
2018-11-20T10:14:12.635Z,43.3
2018-11-20T10:15:14.429Z,42.9
2018-11-20T10:16:15.585Z,43.2
2018-11-20T10:17:17.535Z,43.6
2018-11-20T10:18:19.462Z,43.2
2018-11-20T10:19:20.808Z,43.2
2018-11-20T10:20:22.430Z,43.2
2018-11-20T10:21:23.778Z,43.1
2018-11-20T10:22:25.457Z,43.1
2018-11-20T10:23:27.150Z,43.7
2018-11-20T10:24:28.776Z,43.6
2018-11-20T10:25:31.040Z,43.4
2018-11-20T10:26:32.996Z,43
2018-11-20T10:27:34.622Z,43.2
2018-11-20T10:28:35.685Z,43.3
2018-11-20T10:29:37.305Z,43
2018-11-20T10:30:38.653Z,43.1
2018-11-20T10:31:39.694Z,43.2
2018-11-20T10:32:41.600Z,43.3
2018-11-20T10:33:42.941Z,43.2
2018-11-20T10:34:44.666Z,43.2
2018-11-20T10:35:46.601Z,43.4
2018-11-20T10:36:47.649Z,43.4
2018-11-20T10:37:49.250Z,43.2
2018-11-20T10:38:50.855Z,43.5
2018-11-20T10:39:52.487Z,43.6
2018-11-20T10:40:54.390Z,43.6
2018-11-20T10:41:56.011Z,44
2018-11-20T10:42:57.636Z,44
2018-11-20T10:43:59.537Z,43.8
2018-11-20T10:45:01.475Z,43.5
2018-11-20T10:46:03.042Z,43.6
2018-11-20T10:47:05.348Z,44
2018-11-20T10:48:06.981Z,43.6
2018-11-20T10:49:08.305Z,43.5
2018-11-20T10:50:09.906Z,43.3
2018-11-20T10:51:11.710Z,43.4
2018-11-20T10:52:12.890Z,43.5
2018-11-20T10:53:14.231Z,43.6
2018-11-20T10:54:15.597Z,43.6
2018-11-20T10:55:16.649Z,43.5
2018-11-20T10:56:17.974Z,43.6
2018-11-20T10:57:19.295Z,43.7
2018-11-20T10:58:20.364Z,43.5
2018-11-20T10:59:22.041Z,43.7
2018-11-20T11:00:23.657Z,43.6
2018-11-20T11:01:25.012Z,43.6
2018-11-20T11:02:26.317Z,43.1
2018-11-20T11:03:27.098Z,43.3
2018-11-20T11:04:29.033Z,43
2018-11-20T11:05:30.580Z,43.3
2018-11-20T11:06:32.374Z,43.9
2018-11-20T11:07:35.682Z,43.8
2018-11-20T11:08:37.630Z,43.6
2018-11-20T11:09:39.256Z,43.7
2018-11-20T11:10:40.876Z,43.4
2018-11-20T11:11:42.854Z,43.8
2018-11-20T11:12:45.394Z,43.6
2018-11-20T11:13:46.874Z,43.6
2018-11-20T11:14:48.542Z,43.4
2018-11-20T11:15:49.729Z,43.6
2018-11-20T11:16:51.071Z,43.3
2018-11-20T11:17:52.698Z,43.1
2018-11-20T11:18:54.316Z,43.2
2018-11-20T11:19:55.365Z,43.1
2018-11-20T11:20:56.854Z,43.7
2018-11-20T11:21:58.668Z,43.6
2018-11-20T11:23:00.980Z,43.9
2018-11-20T11:24:02.873Z,43.6
2018-11-20T11:25:04.476Z,43.6
2018-11-20T11:26:05.817Z,43.6
2018-11-20T11:27:07.439Z,43.6
2018-11-20T11:28:08.769Z,43.6
2018-11-20T11:29:10.113Z,43.8
2018-11-20T11:30:12.425Z,43.5
2018-11-20T11:31:14.326Z,43.8
2018-11-20T11:32:16.017Z,43.7
2018-11-20T11:33:17.634Z,43.4
2018-11-20T11:34:24.996Z,44
2018-11-20T11:35:26.361Z,43.6
2018-11-20T11:36:27.705Z,43.8
2018-11-20T11:37:29.363Z,43.8
2018-11-20T11:38:30.993Z,43.9
2018-11-20T11:39:32.885Z,44
2018-11-20T11:40:34.216Z,43.6
2018-11-20T11:41:36.135Z,43.5
2018-11-20T11:42:37.759Z,43.7
2018-11-20T11:43:39.394Z,43.6
2018-11-20T11:44:41.019Z,43.7
2018-11-20T11:45:42.345Z,43.5
2018-11-20T11:46:43.666Z,43.7
2018-11-20T11:47:44.995Z,43.8
2018-11-20T11:48:46.353Z,43.9
2018-11-20T11:49:48.257Z,43.6
2018-11-20T11:50:49.617Z,43.8
2018-11-20T11:51:50.961Z,43.5
2018-11-20T11:52:52.864Z,43.6
2018-11-20T11:53:54.463Z,43.8
2018-11-20T11:54:56.310Z,43.5
2018-11-20T11:55:58.603Z,43.6
2018-11-20T11:56:59.930Z,43.7
2018-11-20T11:58:01.284Z,43.9
2018-11-20T11:59:02.880Z,44
2018-11-20T12:00:04.485Z,44.3
2018-11-20T12:01:05.826Z,44.1
2018-11-20T12:05:09.404Z,44
2018-11-20T12:06:11.303Z,44
2018-11-20T12:07:12.961Z,44.2
2018-11-20T12:08:14.671Z,44.1
2018-11-20T12:09:16.576Z,44
2018-11-20T12:10:19.144Z,43.9
2018-11-20T12:11:20.764Z,44.2
2018-11-20T12:12:22.387Z,43.9
2018-11-20T12:13:24.007Z,44
2018-11-20T12:14:25.906Z,44.1
2018-11-20T12:15:27.573Z,44.1
2018-11-20T12:16:28.885Z,44
2018-11-20T12:17:30.204Z,44
2018-11-20T12:18:32.102Z,44.1
2018-11-20T12:19:33.722Z,43.7
2018-11-20T12:20:35.344Z,44.1
2018-11-20T12:21:36.667Z,44
2018-11-20T12:22:38.739Z,44
2018-11-20T12:23:40.625Z,43.7
2018-11-20T12:24:42.223Z,43.9
2018-11-20T12:25:43.566Z,44
2018-11-20T12:26:45.188Z,44
2018-11-20T12:27:46.791Z,44
2018-11-20T12:28:48.668Z,44
2018-11-20T12:29:55.465Z,43.9
2018-11-20T12:30:58.799Z,44.2
2018-11-20T12:32:00.421Z,44.3
2018-11-20T12:33:02.045Z,44
2018-11-20T12:34:03.941Z,44.2
2018-11-20T12:35:05.626Z,44.3
2018-11-20T12:36:07.299Z,44.1
2018-11-20T12:37:08.923Z,44.2
2018-11-20T12:38:10.837Z,44
2018-11-20T12:39:12.456Z,44
2018-11-20T12:40:17.097Z,44
2018-11-20T12:41:19.059Z,44.1
2018-11-20T12:42:22.360Z,44
2018-11-20T12:43:23.610Z,44
2018-11-20T12:44:25.601Z,44
2018-11-20T12:45:26.949Z,44.1
2018-11-20T12:46:28.567Z,43.8
2018-11-20T12:47:30.186Z,44.2
2018-11-20T12:48:32.085Z,44.2
2018-11-20T12:49:33.995Z,44
2018-11-20T12:50:35.680Z,44.2
2018-11-20T12:51:37.644Z,43.9
2018-11-20T12:52:41.228Z,43.9
2018-11-20T12:53:45.352Z,44
2018-11-20T12:54:47.025Z,44
2018-11-20T12:55:48.929Z,43.9
2018-11-20T12:56:50.819Z,44.5
2018-11-20T12:57:54.494Z,44.4
2018-11-20T12:58:56.119Z,44.1
2018-11-20T12:59:58.013Z,44.4
2018-11-20T13:00:59.773Z,44.3
2018-11-20T13:02:01.385Z,44.2
2018-11-20T13:03:03.342Z,44.2
2018-11-20T13:04:04.960Z,43.9
2018-11-20T13:05:06.905Z,44
2018-11-20T13:06:08.226Z,44.2
2018-11-20T13:07:09.847Z,44
2018-11-20T13:08:11.466Z,44.2
2018-11-20T13:09:13.071Z,44.2
2018-11-20T13:10:14.684Z,44.3
2018-11-20T13:11:16.026Z,44.3
2018-11-20T13:12:17.370Z,44.3
2018-11-20T13:13:18.993Z,44.2
2018-11-20T13:14:22.911Z,43.9
2018-11-20T13:15:24.232Z,44.1
2018-11-20T13:16:26.129Z,43.8
2018-11-20T13:17:28.030Z,43.8
2018-11-20T13:18:29.371Z,44.2
2018-11-20T13:19:33.301Z,44.1
2018-11-20T13:20:34.481Z,44.3
2018-11-20T13:21:35.823Z,44.5
2018-11-20T13:22:41.371Z,44.6
2018-11-20T13:23:43.005Z,44.2
2018-11-20T13:24:44.622Z,44.3
2018-11-20T13:25:46.573Z,44.1
2018-11-20T13:26:48.195Z,44.1
2018-11-20T13:27:50.095Z,44.2
2018-11-20T13:28:51.164Z,43.9
2018-11-20T13:29:52.780Z,43.8
2018-11-20T13:30:54.690Z,44.2
2018-11-20T13:31:57.093Z,44.2
2018-11-20T13:32:58.719Z,44
2018-11-20T13:34:00.361Z,43.9
2018-11-20T13:35:02.258Z,44
2018-11-20T13:36:03.875Z,44.4
2018-11-20T13:37:05.497Z,44.5
2018-11-20T13:38:13.762Z,44.3
2018-11-20T13:39:15.768Z,43.9
2018-11-20T13:40:17.098Z,44.5
2018-11-20T13:41:18.692Z,44.4
2018-11-20T13:42:20.595Z,44.1
2018-11-20T13:43:21.920Z,44.3
2018-11-20T13:44:23.544Z,44.5
2018-11-20T13:45:25.453Z,44.5
2018-11-20T13:46:27.344Z,44.8
2018-11-20T13:47:28.961Z,44.6
2018-11-20T13:48:30.559Z,43.8
2018-11-20T13:49:32.394Z,44.5
2018-11-20T13:50:33.720Z,43.9
2018-11-20T13:51:35.066Z,44.2
2018-11-20T13:52:36.395Z,44.4